Time;durP1;ratioP1;P1;durP2;ratioP2;P2;SDS_P1;SDS_P2;PMS_P1;PMS_P2;Temp;Humidity;BMP_temperature;BMP_pressure;BME280_temperature;BME280_humidity;BME280_pressure;Samples;Min_cycle;Max_cycle;Signal;HPM_P1;HPM_P2
2021/09/09 00:00:17;;;;;;;;;;;;;;;10.05;63.52;101786.18;458006;114;921548;-82
2021/09/09 00:01:20;;;;;;;;;;;;;;;10.03;63.55;101788.26;457545;114;921529;-81
2021/09/09 00:02:25;;;;;;;;;;;;;;;10.03;63.56;101783.63;457064;116;921529;-82
2021/09/09 00:03:28;;;;;;;;;;;;;;;10.02;63.52;101787.41;457076;115;921566;-81
2021/09/09 00:04:32;;;;;;;;;;;;;;;10.01;63.52;101785.70;458879;114;921713;-82
2021/09/09 00:05:36;;;;;;;;;;;;;;;10.01;63.52;101795.75;458897;114;921630;-82
2021/09/09 00:06:39;;;;;;;;;;;;;;;10.00;63.53;101785.87;459732;116;921514;-82
2021/09/09 00:07:44;;;;;;;;;;;;;;;9.99;63.53;101787.75;461314;114;921475;-82
2021/09/09 00:08:48;;;;;;;;;;;;;;;9.99;63.52;101795.08;452749;116;921552;-82
2021/09/09 00:09:52;;;;;;;;;;;;;;;9.99;63.50;101789.63;451550;117;921551;-82
2021/09/09 00:10:55;;;;;;;;;;;;;;;9.98;63.52;101787.92;449986;118;921604;-82
2021/09/09 00:12:00;;;;;;;;;;;;;;;9.98;63.50;101791.50;449830;116;921520;-81
2021/09/09 00:13:05;;;;;;;;;;;;;;;9.98;63.53;101793.37;451629;116;921591;-82
2021/09/09 00:14:10;;;;;;;;;;;;;;;9.98;63.52;101794.23;458595;115;921505;-81
2021/09/09 00:15:17;;;;;;;;;;;;;;;9.99;63.54;101786.91;451452;117;921540;-81
2021/09/09 00:16:20;;;;;;;;;;;;;;;10.01;63.61;101790.30;449226;116;921649;-81
2021/09/09 00:17:24;;;;;;;;;;;;;;;10.04;63.61;101787.20;457983;115;921535;-82
2021/09/09 00:18:28;;;;;;;;;;;;;;;10.07;63.55;101794.18;451142;118;921966;-81
2021/09/09 00:19:32;;;;;;;;;;;;;;;10.06;63.44;101790.61;453376;117;921678;-81
2021/09/09 00:20:37;;;;;;;;;;;;;;;10.07;63.35;101789.58;448933;118;921638;-80
2021/09/09 00:21:41;;;;;;;;;;;;;;;10.04;63.29;101788.05;451697;117;921606;-80
2021/09/09 00:22:45;;;;;;;;;;;;;;;10.03;63.28;101788.26;450163;117;921667;-81
2021/09/09 00:23:48;;;;;;;;;;;;;;;10.01;63.25;101791.16;449089;118;921644;-82
2021/09/09 00:24:52;;;;;;;;;;;;;;;10.00;63.23;101794.05;450245;115;921563;-81
2021/09/09 00:25:55;;;;;;;;;;;;;;;9.97;63.24;101791.70;454776;115;921596;-81
2021/09/09 00:26:59;;;;;;;;;;;;;;;9.96;63.28;101790.00;456149;115;921469;-82
2021/09/09 00:28:03;;;;;;;;;;;;;;;9.94;63.32;101790.17;449806;117;922070;-81
2021/09/09 00:29:08;;;;;;;;;;;;;;;9.92;63.33;101789.50;456800;114;921559;-81
2021/09/09 00:30:12;;;;;;;;;;;;;;;9.90;63.36;101790.73;452186;118;921800;-82
2021/09/09 00:31:17;;;;;;;;;;;;;;;9.89;63.41;101789.02;452170;116;921745;-82
2021/09/09 00:32:21;;;;;;;;;;;;;;;9.87;63.50;101791.07;458594;114;921598;-82
2021/09/09 00:33:25;;;;;;;;;;;;;;;9.87;63.55;101789.20;455798;115;921806;-81
2021/09/09 00:34:28;;;;;;;;;;;;;;;9.87;63.56;101791.07;464727;113;921973;-81
2021/09/09 00:35:33;;;;;;;;;;;;;;;9.87;63.55;101791.92;464462;114;921671;-81
2021/09/09 00:36:36;;;;;;;;;;;;;;;9.86;63.52;101797.57;463728;112;921612;-81
2021/09/09 00:37:40;;;;;;;;;;;;;;;9.84;63.56;101786.84;464037;114;921590;-81
2021/09/09 00:38:43;;;;;;;;;;;;;;;9.85;63.63;101793.15;463823;114;921653;-80
2021/09/09 00:39:46;;;;;;;;;;;;;;;9.86;63.65;101781.23;464119;114;921689;-81
2021/09/09 00:40:49;;;;;;;;;;;;;;;9.85;63.66;101783.10;462472;113;921597;-82
2021/09/09 00:41:53;;;;;;;;;;;;;;;9.86;63.58;101784.80;464249;114;922073;-81
2021/09/09 00:42:56;;;;;;;;;;;;;;;9.86;63.54;101789.40;463854;113;921458;-81
2021/09/09 00:44:00;;;;;;;;;;;;;;;9.86;63.48;101786.67;463456;113;921680;-81
2021/09/09 00:45:04;;;;;;;;;;;;;;;9.85;63.43;101787.70;463703;113;921680;-81
2021/09/09 00:46:07;;;;;;;;;;;;;;;9.84;63.42;101788.72;464488;114;921523;-81
2021/09/09 00:47:11;;;;;;;;;;;;;;;9.83;63.43;101785.14;451254;118;921461;-80
2021/09/09 00:48:14;;;;;;;;;;;;;;;9.83;63.44;101787.02;449759;115;921522;-82
2021/09/09 00:49:17;;;;;;;;;;;;;;;9.83;63.41;101784.30;449865;118;921705;-81
2021/09/09 00:50:21;;;;;;;;;;;;;;;9.84;63.41;101784.12;450280;116;921671;-81
2021/09/09 00:51:25;;;;;;;;;;;;;;;9.83;63.40;101787.88;459194;115;921679;-81
2021/09/09 00:52:29;;;;;;;;;;;;;;;9.83;63.35;101784.30;458343;114;921602;-82
2021/09/09 00:53:34;;;;;;;;;;;;;;;9.82;63.31;101788.04;457633;115;921628;-82
2021/09/09 00:54:37;;;;;;;;;;;;;;;9.81;63.22;101794.55;457801;115;921550;-82
2021/09/09 00:55:40;;;;;;;;;;;;;;;9.78;63.15;101789.44;458055;115;921692;-80
2021/09/09 00:56:43;;;;;;;;;;;;;;;9.75;63.15;101790.66;442382;118;921771;-80
2021/09/09 00:57:47;;;;;;;;;;;;;;;9.74;63.18;101786.23;443580;116;921682;-81
2021/09/09 00:58:51;;;;;;;;;;;;;;;9.73;63.13;101786.41;449534;117;921589;-82
2021/09/09 00:59:55;;;;;;;;;;;;;;;9.72;63.09;101787.44;448239;116;921555;-81
2021/09/09 01:00:58;;;;;;;;;;;;;;;9.70;63.07;101784.91;458537;115;921678;-82
2021/09/09 01:02:02;;;;;;;;;;;;;;;9.69;63.10;101785.08;450099;118;921545;-81
2021/09/09 01:03:07;;;;;;;;;;;;;;;9.68;63.08;101788.83;450295;115;921632;-81
2021/09/09 01:04:10;;;;;;;;;;;;;;;9.66;63.06;101786.27;450845;116;921743;-82
2021/09/09 01:05:14;;;;;;;;;;;;;;;9.66;63.08;101783.55;457082;115;921596;-82
2021/09/09 01:06:18;;;;;;;;;;;;;;;9.66;63.11;101782.70;456889;115;921627;-80
2021/09/09 01:07:22;;;;;;;;;;;;;;;9.65;63.16;101781.03;456064;114;921501;-80
2021/09/09 01:08:25;;;;;;;;;;;;;;;9.64;63.19;101785.63;457211;114;921809;-82
2021/09/09 01:09:28;;;;;;;;;;;;;;;9.63;63.16;101786.65;457688;115;921589;-81
2021/09/09 01:10:33;;;;;;;;;;;;;;;9.63;63.17;101789.37;455740;116;921590;-81
2021/09/09 01:11:36;;;;;;;;;;;;;;;9.62;63.19;101788.52;456209;114;921503;-80
2021/09/09 01:12:39;;;;;;;;;;;;;;;9.62;63.16;101787.67;458444;114;921586;-80
2021/09/09 01:13:52;;;;;;;;;;;;;;;9.59;63.17;101785.32;457900;114;921781;-81
2021/09/09 01:14:55;;;;;;;;;;;;;;;9.59;63.17;101786.14;458688;114;921513;-81
2021/09/09 01:15:58;;;;;;;;;;;;;;;9.59;63.13;101785.32;451700;116;921587;-81
2021/09/09 01:17:02;;;;;;;;;;;;;;;9.57;63.17;101784.64;458747;116;921641;-80
2021/09/09 01:18:09;;;;;;;;;;;;;;;9.56;63.21;101786.51;454293;115;921673;-82
2021/09/09 01:19:13;;;;;;;;;;;;;;;9.56;63.22;101785.66;450370;115;921592;-81
2021/09/09 01:20:16;;;;;;;;;;;;;;;9.55;63.18;101786.68;457154;115;921589;-80
2021/09/09 01:21:20;;;;;;;;;;;;;;;9.55;63.21;101786.68;451964;115;921555;-81
2021/09/09 01:22:24;;;;;;;;;;;;;;;9.53;63.18;101786.03;451257;115;921571;-81
2021/09/09 01:23:27;;;;;;;;;;;;;;;9.51;63.20;101780.75;449623;116;921720;-82
2021/09/09 01:24:30;;;;;;;;;;;;;;;9.50;63.23;101792.66;449777;115;921630;-80
2021/09/09 01:25:34;;;;;;;;;;;;;;;9.49;63.25;101793.69;448864;115;921573;-80
2021/09/09 01:26:57;;;;;;;;;;;;;;;9.49;63.29;101790.97;458052;115;921590;-81
2021/09/09 01:28:00;;;;;;;;;;;;;;;9.48;63.27;101783.81;457684;115;921446;-82
2021/09/09 01:29:03;;;;;;;;;;;;;;;9.47;63.28;101787.59;458856;113;921620;-81
2021/09/09 01:30:07;;;;;;;;;;;;;;;9.46;63.33;101785.05;458571;115;921403;-81
2021/09/09 01:31:16;;;;;;;;;;;;;;;9.46;63.37;101785.89;458136;115;921355;-81
2021/09/09 01:32:19;;;;;;;;;;;;;;;9.47;63.42;101779.42;459288;115;921509;-82
2021/09/09 01:33:23;;;;;;;;;;;;;;;9.47;63.38;101784.88;460198;115;921652;-82
2021/09/09 01:34:28;;;;;;;;;;;;;;;9.46;63.37;101775.00;459317;115;921550;-81
2021/09/09 01:35:31;;;;;;;;;;;;;;;9.46;63.40;101780.45;458608;113;921497;-81
2021/09/09 01:36:34;;;;;;;;;;;;;;;9.46;63.45;101772.28;459547;115;921687;-81
2021/09/09 01:37:38;;;;;;;;;;;;;;;9.45;63.44;101784.19;458506;115;921481;-81
2021/09/09 01:38:41;;;;;;;;;;;;;;;9.45;63.40;101783.34;459589;115;921642;-81
2021/09/09 01:39:45;;;;;;;;;;;;;;;9.42;63.44;101787.28;452379;116;921740;-82
2021/09/09 01:40:49;;;;;;;;;;;;;;;9.41;63.39;101780.14;449444;117;921537;-81
2021/09/09 01:41:52;;;;;;;;;;;;;;;9.40;63.37;101778.44;456907;116;921591;-81
2021/09/09 01:42:56;;;;;;;;;;;;;;;9.39;63.30;101779.45;462627;114;921477;-81
2021/09/09 01:43:59;;;;;;;;;;;;;;;9.38;63.26;101780.47;462045;114;921680;-81
2021/09/09 01:45:03;;;;;;;;;;;;;;;9.38;63.19;101779.63;462430;114;921592;-81
2021/09/09 01:46:06;;;;;;;;;;;;;;;9.36;63.17;101777.10;462611;114;921582;-81
2021/09/09 01:47:10;;;;;;;;;;;;;;;9.35;63.09;101775.40;461653;114;921470;-81
2021/09/09 01:48:17;;;;;;;;;;;;;;;9.33;63.07;101779.31;462762;113;921685;-81
2021/09/09 01:49:19;;;;;;;;;;;;;;;9.31;63.04;101778.66;463550;113;921344;-81
2021/09/09 01:50:22;;;;;;;;;;;;;;;9.26;63.04;101772.91;462986;114;921402;-80
2021/09/09 01:51:26;;;;;;;;;;;;;;;9.25;63.09;101782.09;463285;114;921911;-81
2021/09/09 01:52:29;;;;;;;;;;;;;;;9.23;63.05;101778.68;463128;114;921416;-80
2021/09/09 01:53:32;;;;;;;;;;;;;;;9.22;63.08;101777.83;463211;113;921824;-81
2021/09/09 01:54:36;;;;;;;;;;;;;;;9.21;63.02;101779.70;465294;114;921390;-80
2021/09/09 01:55:39;;;;;;;;;;;;;;;9.20;63.00;101778.03;463745;114;921313;-80
2021/09/09 01:56:42;;;;;;;;;;;;;;;9.19;63.02;101778.20;463089;113;921336;-81
2021/09/09 01:57:46;;;;;;;;;;;;;;;9.18;63.01;101776.50;463690;114;921398;-81
2021/09/09 01:58:49;;;;;;;;;;;;;;;9.17;63.02;101775.64;463688;114;921746;-80
2021/09/09 01:59:56;;;;;;;;;;;;;;;9.18;62.95;101779.22;463818;114;921426;-81
2021/09/09 02:00:57;;;;;;;;;;;;;;;9.20;62.81;101777.18;463151;113;921546;-79
2021/09/09 02:02:01;;;;;;;;;;;;;;;9.20;62.70;101778.03;463856;114;921629;-81
2021/09/09 02:03:04;;;;;;;;;;;;;;;9.20;62.64;101778.03;463317;114;921664;-81
2021/09/09 02:04:08;;;;;;;;;;;;;;;9.20;62.62;101778.03;462488;113;921624;-80
2021/09/09 02:05:11;;;;;;;;;;;;;;;9.20;62.55;101771.73;463961;113;921583;-81
2021/09/09 02:06:15;;;;;;;;;;;;;;;9.20;62.39;101780.75;462954;114;921513;-81
2021/09/09 02:07:18;;;;;;;;;;;;;;;9.18;62.25;101774.62;462599;114;922075;-81
2021/09/09 02:08:21;;;;;;;;;;;;;;;9.18;62.24;101779.22;462235;114;921509;-81
2021/09/09 02:09:24;;;;;;;;;;;;;;;9.16;62.25;101773.09;462963;114;921582;-81
2021/09/09 02:10:27;;;;;;;;;;;;;;;9.15;62.11;101768.70;462562;114;921629;-81
2021/09/09 02:13:25;;;;;;;;;;;;;;;9.14;61.83;101773.29;461050;113;921554;-81
2021/09/09 02:14:29;;;;;;;;;;;;;;;9.14;61.48;101773.29;460459;114;921622;-80
2021/09/09 02:15:32;;;;;;;;;;;;;;;9.15;61.29;101776.86;463792;113;921566;-80
2021/09/09 02:16:36;;;;;;;;;;;;;;;9.14;61.16;101776.02;455862;116;921441;-79
2021/09/09 02:17:40;;;;;;;;;;;;;;;9.16;61.00;101778.53;456198;114;921770;-80
2021/09/09 02:18:43;;;;;;;;;;;;;;;9.16;60.89;101778.53;464951;114;921638;-81
2021/09/09 02:19:46;;;;;;;;;;;;;;;9.18;60.73;101779.22;463662;114;921868;-81
2021/09/09 02:20:50;;;;;;;;;;;;;;;9.20;60.52;101775.31;463662;114;921539;-81
2021/09/09 02:21:53;;;;;;;;;;;;;;;9.20;60.35;101780.75;455280;116;921764;-81
2021/09/09 02:22:56;;;;;;;;;;;;;;;9.21;60.24;101782.42;455376;114;921907;-81
2021/09/09 02:23:59;;;;;;;;;;;;;;;9.22;60.07;101783.27;463895;114;921602;-81
2021/09/09 02:25:02;;;;;;;;;;;;;;;9.24;59.90;101780.39;462623;114;921717;-80
2021/09/09 02:26:21;;;;;;;;;;;;;;;9.25;59.70;101788.38;463259;114;921618;-81
2021/09/09 02:27:24;;;;;;;;;;;;;;;9.26;59.49;101783.79;463457;114;921559;-80
2021/09/09 02:28:28;;;;;;;;;;;;;;;9.26;59.33;101786.51;463191;113;921577;-81
2021/09/09 02:29:31;;;;;;;;;;;;;;;9.25;59.24;101782.09;463654;114;921500;-80
2021/09/09 02:30:34;;;;;;;;;;;;;;;9.25;59.19;101788.38;463191;112;921524;-82
2021/09/09 02:31:37;;;;;;;;;;;;;;;9.24;59.14;101785.83;462247;114;921626;-81
2021/09/09 02:32:41;;;;;;;;;;;;;;;9.22;59.14;101785.99;452240;116;922104;-82
2021/09/09 02:33:44;;;;;;;;;;;;;;;9.19;59.11;101786.36;449122;116;921788;-81
2021/09/09 02:34:47;;;;;;;;;;;;;;;9.17;59.05;101789.25;455712;116;921487;-81
2021/09/09 02:35:50;;;;;;;;;;;;;;;9.17;59.06;101782.95;455633;116;921546;-79
2021/09/09 02:36:54;;;;;;;;;;;;;;;9.14;59.10;101781.45;449752;116;921532;-82
2021/09/09 02:37:57;;;;;;;;;;;;;;;9.14;59.13;101786.05;450472;118;921560;-80
2021/09/09 02:39:00;;;;;;;;;;;;;;;9.14;59.09;101784.17;450644;118;921567;-81
2021/09/09 02:40:03;;;;;;;;;;;;;;;9.15;59.05;101787.75;451197;116;921444;-79
2021/09/09 02:41:07;;;;;;;;;;;;;;;9.15;58.99;101785.02;457387;115;921465;-81
2021/09/09 02:42:10;;;;;;;;;;;;;;;9.16;58.91;101783.98;456620;115;921639;-81
2021/09/09 02:43:14;;;;;;;;;;;;;;;9.15;58.91;101782.30;456506;115;921524;-81
2021/09/09 02:44:17;;;;;;;;;;;;;;;9.15;58.93;101780.41;459330;113;921739;-80
2021/09/09 02:45:20;;;;;;;;;;;;;;;9.16;58.89;101783.98;458441;115;921507;-81
2021/09/09 02:46:24;;;;;;;;;;;;;;;9.18;58.87;101784.66;459612;115;921581;-81
2021/09/09 02:47:27;;;;;;;;;;;;;;;9.17;58.85;101778.36;463244;114;921619;-81
2021/09/09 02:48:30;;;;;;;;;;;;;;;9.17;58.81;101781.09;463721;113;921605;-81
2021/09/09 02:49:33;;;;;;;;;;;;;;;9.18;58.81;101787.38;463410;114;921584;-82
2021/09/09 02:50:37;;;;;;;;;;;;;;;9.17;58.86;101783.81;462727;113;921537;-80
2021/09/09 02:51:40;;;;;;;;;;;;;;;9.16;58.90;101783.98;463227;114;921509;-82
2021/09/09 02:52:43;;;;;;;;;;;;;;;9.13;58.94;101782.47;462915;113;921595;-81
2021/09/09 02:53:46;;;;;;;;;;;;;;;9.13;58.97;101784.34;462487;114;921621;-81
2021/09/09 02:54:49;;;;;;;;;;;;;;;9.11;58.99;101794.54;462918;114;921431;-81
2021/09/09 02:55:53;;;;;;;;;;;;;;;9.09;58.98;101791.17;462432;114;921570;-81
2021/09/09 02:56:56;;;;;;;;;;;;;;;9.06;58.98;101783.34;462299;113;921596;-82
2021/09/09 02:57:59;;;;;;;;;;;;;;;9.01;59.02;101794.75;461741;114;921586;-80
2021/09/09 02:59:02;;;;;;;;;;;;;;;8.98;58.97;101788.83;462180;114;921632;-82
2021/09/09 03:00:06;;;;;;;;;;;;;;;8.95;59.03;101794.59;461233;113;921521;-81
2021/09/09 03:01:12;;;;;;;;;;;;;;;8.93;59.04;101793.94;453342;116;921812;-80
2021/09/09 03:02:15;;;;;;;;;;;;;;;8.90;59.14;101789.69;455955;114;921602;-82
2021/09/09 03:03:21;;;;;;;;;;;;;;;8.86;59.18;101790.22;464612;114;921540;-81
2021/09/09 03:04:24;;;;;;;;;;;;;;;8.83;59.23;101794.12;464294;113;921601;-81
2021/09/09 03:05:27;;;;;;;;;;;;;;;8.81;59.26;101798.05;463756;113;921538;-81
2021/09/09 03:06:31;;;;;;;;;;;;;;;8.77;59.35;101790.22;463753;114;921624;-81
2021/09/09 03:07:34;;;;;;;;;;;;;;;8.74;59.38;101787.86;463062;114;921567;-81
2021/09/09 03:08:37;;;;;;;;;;;;;;;8.72;59.45;101792.61;464527;113;921532;-81
2021/09/09 03:09:41;;;;;;;;;;;;;;;8.70;59.54;101794.68;463980;114;921381;-82
2021/09/09 03:10:44;;;;;;;;;;;;;;;8.67;59.63;101795.01;463369;114;921170;-80
2021/09/09 03:11:47;;;;;;;;;;;;;;;8.67;59.72;101796.88;462558;115;922293;-82
2021/09/09 03:12:51;;;;;;;;;;;;;;;8.65;59.79;101798.94;462594;113;921412;-81
2021/09/09 03:13:54;;;;;;;;;;;;;;;8.65;59.87;101807.95;463300;115;921384;-79
2021/09/09 03:14:57;;;;;;;;;;;;;;;8.63;59.93;101799.09;463194;115;921627;-80
2021/09/09 03:16:00;;;;;;;;;;;;;;;8.62;60.05;101810.99;463203;113;921476;-81
2021/09/09 03:17:04;;;;;;;;;;;;;;;8.62;60.05;101810.99;461929;113;921586;-82
2021/09/09 03:18:07;;;;;;;;;;;;;;;8.60;60.17;101806.77;461685;113;921512;-80
2021/09/09 03:19:11;;;;;;;;;;;;;;;8.60;60.17;101806.77;461859;113;921778;-81
2021/09/09 03:20:14;;;;;;;;;;;;;;;8.61;60.20;101812.00;461638;113;921578;-79
2021/09/09 03:21:18;;;;;;;;;;;;;;;8.62;60.24;101813.71;460974;115;921696;-82
2021/09/09 03:22:21;;;;;;;;;;;;;;;8.62;60.27;101812.86;461572;114;921566;-81
2021/09/09 03:23:24;;;;;;;;;;;;;;;8.62;60.28;101810.99;460683;114;921752;-81
2021/09/09 03:24:27;;;;;;;;;;;;;;;8.63;60.32;101811.84;461187;113;921546;-82
2021/09/09 03:25:30;;;;;;;;;;;;;;;8.62;60.34;101810.99;462676;114;921670;-82
2021/09/09 03:26:33;;;;;;;;;;;;;;;8.64;60.35;101805.39;463114;114;921653;-80
2021/09/09 03:27:37;;;;;;;;;;;;;;;8.64;60.40;101808.96;463000;114;921554;-80
2021/09/09 03:28:40;;;;;;;;;;;;;;;8.65;60.30;101818.82;462261;114;922134;-78
2021/09/09 03:29:43;;;;;;;;;;;;;;;8.67;60.23;101822.20;462902;115;921514;-81
2021/09/09 03:30:46;;;;;;;;;;;;;;;8.67;60.20;101811.32;462574;115;921702;-79
2021/09/09 03:31:49;;;;;;;;;;;;;;;8.68;60.10;101821.18;462468;114;921627;-80
2021/09/09 03:32:52;;;;;;;;;;;;;;;8.67;59.96;101822.20;463045;113;921681;-80
2021/09/09 03:33:55;;;;;;;;;;;;;;;8.66;59.92;101823.21;462465;115;921626;-80
2021/09/09 03:34:59;;;;;;;;;;;;;;;8.66;59.86;101822.36;462237;114;921981;-80
2021/09/09 03:36:02;;;;;;;;;;;;;;;8.65;59.84;101817.97;453012;114;921693;-77
2021/09/09 03:37:05;;;;;;;;;;;;;;;8.65;59.86;101824.26;454729;115;921656;-81
2021/09/09 03:38:09;;;;;;;;;;;;;;;8.66;59.91;101822.36;462166;113;921512;-81
2021/09/09 03:39:14;;;;;;;;;;;;;;;8.66;59.95;101812.34;461484;114;921654;-79
2021/09/09 03:40:17;;;;;;;;;;;;;;;8.69;59.98;101806.57;461507;113;921598;-81
2021/09/09 03:41:21;;;;;;;;;;;;;;;8.72;59.96;101810.80;461311;115;921544;-81
2021/09/09 03:42:24;;;;;;;;;;;;;;;8.74;59.90;101817.77;461500;115;921602;-81
2021/09/09 03:43:27;;;;;;;;;;;;;;;8.77;59.84;101820.14;461879;114;921834;-81
2021/09/09 03:44:30;;;;;;;;;;;;;;;8.80;59.81;101821.67;461378;114;921663;-80
2021/09/09 03:45:34;;;;;;;;;;;;;;;8.81;59.73;101806.20;461372;114;921611;-80
2021/09/09 03:46:37;;;;;;;;;;;;;;;8.82;59.71;101818.79;463064;115;921417;-82
2021/09/09 03:47:41;;;;;;;;;;;;;;;8.82;59.66;101816.07;463624;115;921564;-81
2021/09/09 03:48:44;;;;;;;;;;;;;;;8.83;59.63;101821.31;462925;115;922168;-81
2021/09/09 03:49:47;;;;;;;;;;;;;;;8.85;59.63;101822.00;462681;114;921554;-81
2021/09/09 03:50:50;;;;;;;;;;;;;;;8.88;59.58;101826.23;463146;115;921501;-81
2021/09/09 03:51:54;;;;;;;;;;;;;;;8.90;59.50;101830.48;462503;114;921631;-82
2021/09/09 03:52:57;;;;;;;;;;;;;;;8.92;59.39;101817.57;463395;113;921522;-81
2021/09/09 03:54:00;;;;;;;;;;;;;;;8.94;59.34;101822.81;463512;115;921507;-81
2021/09/09 03:55:05;;;;;;;;;;;;;;;8.96;59.29;101818.91;462525;115;921601;-82
2021/09/09 03:56:11;;;;;;;;;;;;;;;9.00;59.22;101822.12;462260;113;921508;-83
2021/09/09 03:57:14;;;;;;;;;;;;;;;9.02;59.13;101820.09;462811;114;921552;-81
2021/09/09 03:58:17;;;;;;;;;;;;;;;9.05;59.09;101825.17;461569;115;921520;-80
2021/09/09 03:59:20;;;;;;;;;;;;;;;9.07;59.10;101826.70;462139;115;921660;-79
2021/09/09 04:00:24;;;;;;;;;;;;;;;9.09;59.04;101821.95;462033;114;921538;-80
2021/09/09 04:01:27;;;;;;;;;;;;;;;9.11;59.00;101822.60;462338;114;921532;-81
2021/09/09 04:02:31;;;;;;;;;;;;;;;9.12;58.94;101824.30;461594;115;921647;-81
2021/09/09 04:03:36;;;;;;;;;;;;;;;9.15;58.91;101828.56;453230;116;921540;-80
2021/09/09 04:04:39;;;;;;;;;;;;;;;9.16;58.94;101828.36;453096;115;921535;-81
2021/09/09 04:05:42;;;;;;;;;;;;;;;9.19;58.88;101824.45;461125;114;921540;-84
2021/09/09 04:06:45;;;;;;;;;;;;;;;9.21;58.85;101828.69;462508;113;921553;-82
2021/09/09 04:07:49;;;;;;;;;;;;;;;9.23;58.78;101820.35;462009;114;921614;-83
2021/09/09 04:08:52;;;;;;;;;;;;;;;9.26;58.75;101821.89;462500;115;921570;-82
2021/09/09 04:09:55;;;;;;;;;;;;;;;9.26;58.79;101822.73;463919;113;921721;-84
2021/09/09 04:10:58;;;;;;;;;;;;;;;9.27;58.82;101827.13;464225;114;921607;-82
2021/09/09 04:12:01;;;;;;;;;;;;;;;9.30;58.79;101820.50;463780;114;922101;-83
2021/09/09 04:13:05;;;;;;;;;;;;;;;9.31;58.76;101831.22;463620;114;921611;-85
2021/09/09 04:14:08;;;;;;;;;;;;;;;9.33;58.74;101823.70;463380;114;921643;-83
2021/09/09 04:15:11;;;;;;;;;;;;;;;9.34;58.74;101824.56;462994;114;921532;-84
2021/09/09 04:16:15;;;;;;;;;;;;;;;9.36;58.73;101817.93;462763;113;921604;-84
2021/09/09 04:17:18;;;;;;;;;;;;;;;9.37;58.74;101822.32;457524;115;921624;-83
2021/09/09 04:18:21;;;;;;;;;;;;;;;9.40;58.72;101818.41;455955;115;921654;-82
2021/09/09 04:19:24;;;;;;;;;;;;;;;9.40;58.71;101813.82;452578;118;921443;-79
2021/09/09 04:20:28;;;;;;;;;;;;;;;9.43;58.72;101827.06;458178;114;921649;-81
2021/09/09 04:21:31;;;;;;;;;;;;;;;9.45;58.63;101822.30;454406;115;921472;-81
2021/09/09 04:22:35;;;;;;;;;;;;;;;9.46;58.60;101821.28;449702;118;921385;-83
2021/09/09 04:23:38;;;;;;;;;;;;;;;9.48;58.55;101821.94;456245;115;921603;-83
2021/09/09 04:24:42;;;;;;;;;;;;;;;9.51;58.48;101826.19;456279;114;921983;-82
2021/09/09 04:25:45;;;;;;;;;;;;;;;9.53;58.43;101818.70;455124;115;921600;-81
2021/09/09 04:26:49;;;;;;;;;;;;;;;9.55;58.40;101819.35;455493;114;921663;-83
2021/09/09 04:27:53;;;;;;;;;;;;;;;9.57;58.43;101817.31;456687;115;921592;-84
2021/09/09 04:28:56;;;;;;;;;;;;;;;9.58;58.38;101811.70;456785;115;921496;-82
2021/09/09 04:29:59;;;;;;;;;;;;;;;9.60;58.35;101815.07;458671;115;921661;-85
2021/09/09 04:31:03;;;;;;;;;;;;;;;9.62;58.34;101815.75;452067;118;921984;-84
2021/09/09 04:32:07;;;;;;;;;;;;;;;9.65;58.30;101814.53;451789;116;921593;-86
2021/09/09 04:33:11;;;;;;;;;;;;;;;9.65;58.36;101811.80;453294;116;921581;-83
2021/09/09 04:34:14;;;;;;;;;;;;;;;9.68;58.33;101811.47;457370;116;922075;-83
2021/09/09 04:35:18;;;;;;;;;;;;;;;9.72;58.31;101820.12;449686;118;921777;-85
2021/09/09 04:36:22;;;;;;;;;;;;;;;9.73;58.27;101819.95;448627;116;921853;-84
2021/09/09 04:37:26;;;;;;;;;;;;;;;9.76;58.23;101813.30;449355;118;921572;-88
2021/09/09 04:38:29;;;;;;;;;;;;;;;9.78;58.21;101814.80;456279;116;921519;-85
2021/09/09 04:39:33;;;;;;;;;;;;;;;9.81;58.22;101821.78;456250;116;921576;-86
2021/09/09 04:40:36;;;;;;;;;;;;;;;9.83;58.23;101815.11;456286;115;921512;-84
2021/09/09 04:41:40;;;;;;;;;;;;;;;9.85;58.20;101817.66;456288;116;921551;-84
2021/09/09 04:42:43;;;;;;;;;;;;;;;9.88;58.23;101817.29;457631;116;921618;-84
2021/09/09 04:43:46;;;;;;;;;;;;;;;9.92;58.22;101822.19;451816;116;921589;-85
2021/09/09 04:44:50;;;;;;;;;;;;;;;9.94;58.23;101828.32;457427;115;921615;-84
2021/09/09 04:45:53;;;;;;;;;;;;;;;9.96;58.27;101826.27;456814;115;921634;-83
2021/09/09 04:46:57;;;;;;;;;;;;;;;9.99;58.32;101817.72;456612;116;921502;-85
2021/09/09 04:48:00;;;;;;;;;;;;;;;10.01;58.38;101820.28;452885;115;921493;-84
2021/09/09 04:49:04;;;;;;;;;;;;;;;10.05;58.43;101818.88;453890;115;921697;-85
2021/09/09 04:50:08;;;;;;;;;;;;;;;10.09;58.45;101820.20;450195;116;921564;-86
2021/09/09 04:51:12;;;;;;;;;;;;;;;10.12;58.41;101821.73;456723;115;921437;-85
2021/09/09 04:52:16;;;;;;;;;;;;;;;10.14;58.38;101823.27;456516;114;921484;-85
2021/09/09 04:53:19;;;;;;;;;;;;;;;10.17;58.33;101819.34;456901;114;921570;-83
2021/09/09 04:54:22;;;;;;;;;;;;;;;10.19;58.38;101825.47;457379;116;921545;-82
2021/09/09 04:55:25;;;;;;;;;;;;;;;10.22;58.44;101825.09;456468;116;921529;-83
2021/09/09 04:56:28;;;;;;;;;;;;;;;10.25;58.47;101822.87;456428;115;921544;-82
2021/09/09 04:57:31;;;;;;;;;;;;;;;10.28;58.51;101819.77;457182;115;921599;-83
2021/09/09 04:58:34;;;;;;;;;;;;;;;10.33;58.54;101819.20;455708;116;921594;-82
2021/09/09 04:59:38;;;;;;;;;;;;;;;10.35;58.56;101815.28;456758;114;921609;-82
2021/09/09 05:00:41;;;;;;;;;;;;;;;10.40;58.62;101820.18;451444;116;921645;-84
2021/09/09 05:01:44;;;;;;;;;;;;;;;10.43;58.66;101817.92;454175;117;921571;-82
2021/09/09 05:02:48;;;;;;;;;;;;;;;10.48;58.69;101808.33;454281;117;921745;-82
2021/09/09 05:03:51;;;;;;;;;;;;;;;10.51;58.67;101822.47;454597;117;921672;-83
2021/09/09 05:04:55;;;;;;;;;;;;;;;10.54;58.64;101808.45;457856;115;921736;-81
2021/09/09 05:05:58;;;;;;;;;;;;;;;10.58;58.62;101812.52;455474;114;921556;-81
2021/09/09 05:07:01;;;;;;;;;;;;;;;10.61;58.64;101809.41;457393;116;921726;-84
2021/09/09 05:08:04;;;;;;;;;;;;;;;10.66;58.75;101812.43;457010;114;921549;-82
2021/09/09 05:09:07;;;;;;;;;;;;;;;10.69;58.84;101806.63;448238;118;921785;-82
2021/09/09 05:10:12;;;;;;;;;;;;;;;10.73;58.83;101802.48;448886;116;921615;-83
2021/09/09 05:11:17;;;;;;;;;;;;;;;10.77;58.81;101797.48;456069;116;921234;-84
2021/09/09 05:12:20;;;;;;;;;;;;;;;10.81;58.74;101804.25;456437;114;921619;-84
2021/09/09 05:13:23;;;;;;;;;;;;;;;10.84;58.69;101798.44;456531;116;921639;-84
2021/09/09 05:14:27;;;;;;;;;;;;;;;10.86;58.63;101804.58;456384;116;921561;-84
2021/09/09 05:15:30;;;;;;;;;;;;;;;10.88;58.60;101806.06;456557;114;921622;-83
2021/09/09 05:16:33;;;;;;;;;;;;;;;10.90;58.51;101800.42;455817;116;921521;-82
2021/09/09 05:17:36;;;;;;;;;;;;;;;10.94;58.31;101799.02;456259;116;921508;-83
2021/09/09 05:18:40;;;;;;;;;;;;;;;10.95;58.26;101797.98;455914;116;921593;-83
2021/09/09 05:19:43;;;;;;;;;;;;;;;10.98;58.28;101803.05;455985;115;921453;-82
2021/09/09 05:20:46;;;;;;;;;;;;;;;11.02;58.35;101798.94;455757;114;921630;-83
2021/09/09 05:21:50;;;;;;;;;;;;;;;11.06;58.35;101800.24;455046;116;921610;-81
2021/09/09 05:22:53;;;;;;;;;;;;;;;11.09;58.29;101799.84;455073;116;921534;-81
2021/09/09 05:23:57;;;;;;;;;;;;;;;11.13;58.24;101803.07;445618;118;921746;-82
2021/09/09 05:25:01;;;;;;;;;;;;;;;11.16;58.12;101803.53;447779;116;921715;-78
2021/09/09 05:26:05;;;;;;;;;;;;;;;11.18;58.07;101798.74;454663;116;921961;-81
2021/09/09 05:27:08;;;;;;;;;;;;;;;11.21;57.97;101794.77;457395;115;921515;-82
2021/09/09 05:28:12;;;;;;;;;;;;;;;11.23;58.02;101804.48;459579;115;921600;-81